sensor_id;sensor_type;location;lat;lon;timestamp;P1;durP1;ratioP1;P2;durP2;ratioP2
23590;SDS011;11973;52.098;7.582;2024-02-16T00:01:34;3.42;;;3.10;;
23590;SDS011;11973;52.098;7.582;2024-02-16T00:04:01;3.80;;;3.40;;
23590;SDS011;11973;52.098;7.582;2024-02-16T00:06:27;5.05;;;3.28;;
23590;SDS011;11973;52.098;7.582;2024-02-16T00:08:53;3.72;;;2.90;;
23590;SDS011;11973;52.098;7.582;2024-02-16T00:11:18;3.03;;;2.92;;
23590;SDS011;11973;52.098;7.582;2024-02-16T00:13:45;3.70;;;3.50;;
23590;SDS011;11973;52.098;7.582;2024-02-16T00:16:11;3.13;;;3.03;;
23590;SDS011;11973;52.098;7.582;2024-02-16T00:18:36;3.28;;;3.08;;
23590;SDS011;11973;52.098;7.582;2024-02-16T00:21:02;3.22;;;3.13;;
23590;SDS011;11973;52.098;7.582;2024-02-16T00:23:28;3.08;;;2.90;;
23590;SDS011;11973;52.098;7.582;2024-02-16T00:25:54;3.20;;;3.10;;
23590;SDS011;11973;52.098;7.582;2024-02-16T00:28:20;4.18;;;3.45;;
23590;SDS011;11973;52.098;7.582;2024-02-16T05:15:42;2.50;;;2.40;;
23590;SDS011;11973;52.098;7.582;2024-02-16T05:18:08;2.78;;;2.53;;
23590;SDS011;11973;52.098;7.582;2024-02-16T05:20:37;3.08;;;2.95;;
23590;SDS011;11973;52.098;7.582;2024-02-16T05:23:03;8.05;;;2.60;;
23590;SDS011;11973;52.098;7.582;2024-02-16T05:25:29;2.63;;;2.53;;
23590;SDS011;11973;52.098;7.582;2024-02-16T05:27:55;4.90;;;2.50;;
23590;SDS011;11973;52.098;7.582;2024-02-16T05:30:20;2.67;;;2.47;;
23590;SDS011;11973;52.098;7.582;2024-02-16T05:32:46;2.80;;;2.60;;
23590;SDS011;11973;52.098;7.582;2024-02-16T05:35:12;2.53;;;2.45;;
23590;SDS011;11973;52.098;7.582;2024-02-16T05:37:45;3.15;;;2.80;;
23590;SDS011;11973;52.098;7.582;2024-02-16T05:40:16;2.85;;;2.75;;
23590;SDS011;11973;52.098;7.582;2024-02-16T05:42:55;2.88;;;2.58;;
23590;SDS011;11973;52.098;7.582;2024-02-16T05:45:25;2.58;;;2.47;;
23590;SDS011;11973;52.098;7.582;2024-02-16T05:47:54;2.55;;;2.42;;
23590;SDS011;11973;52.098;7.582;2024-02-16T05:50:20;2.28;;;2.28;;
23590;SDS011;11973;52.098;7.582;2024-02-16T05:52:46;2.33;;;2.22;;
23590;SDS011;11973;52.098;7.582;2024-02-16T05:55:12;2.35;;;2.15;;
23590;SDS011;11973;52.098;7.582;2024-02-16T05:57:38;2.53;;;2.42;;
23590;SDS011;11973;52.098;7.582;2024-02-16T06:00:05;2.40;;;2.25;;
23590;SDS011;11973;52.098;7.582;2024-02-16T06:02:32;2.25;;;2.20;;
23590;SDS011;11973;52.098;7.582;2024-02-16T06:04:59;2.58;;;2.47;;
23590;SDS011;11973;52.098;7.582;2024-02-16T06:07:26;3.08;;;2.60;;
23590;SDS011;11973;52.098;7.582;2024-02-16T06:09:51;2.50;;;2.40;;
23590;SDS011;11973;52.098;7.582;2024-02-16T06:12:19;2.60;;;2.40;;
23590;SDS011;11973;52.098;7.582;2024-02-16T06:14:45;2.17;;;2.13;;
23590;SDS011;11973;52.098;7.582;2024-02-16T06:17:13;2.53;;;2.53;;
23590;SDS011;11973;52.098;7.582;2024-02-16T06:19:43;2.08;;;2.08;;
23590;SDS011;11973;52.098;7.582;2024-02-16T06:22:09;2.63;;;2.28;;
23590;SDS011;11973;52.098;7.582;2024-02-16T06:24:38;3.10;;;2.90;;
23590;SDS011;11973;52.098;7.582;2024-02-16T06:27:03;2.35;;;2.10;;
23590;SDS011;11973;52.098;7.582;2024-02-16T06:29:29;2.33;;;2.22;;
23590;SDS011;11973;52.098;7.582;2024-02-16T06:31:55;2.60;;;2.40;;
23590;SDS011;11973;52.098;7.582;2024-02-16T06:34:21;2.35;;;2.15;;
23590;SDS011;11973;52.098;7.582;2024-02-16T06:36:47;2.15;;;2.15;;
23590;SDS011;11973;52.098;7.582;2024-02-16T06:39:14;2.13;;;2.03;;
23590;SDS011;11973;52.098;7.582;2024-02-16T06:41:42;2.53;;;2.00;;
23590;SDS011;11973;52.098;7.582;2024-02-16T06:44:11;2.00;;;2.00;;
23590;SDS011;11973;52.098;7.582;2024-02-16T06:46:37;3.50;;;2.25;;
23590;SDS011;11973;52.098;7.582;2024-02-16T06:49:03;2.60;;;2.50;;
23590;SDS011;11973;52.098;7.582;2024-02-16T06:51:30;2.53;;;2.20;;
23590;SDS011;11973;52.098;7.582;2024-02-16T06:53:56;2.80;;;2.40;;
23590;SDS011;11973;52.098;7.582;2024-02-16T06:56:22;1.88;;;1.88;;
23590;SDS011;11973;52.098;7.582;2024-02-16T06:58:48;2.72;;;2.05;;
23590;SDS011;11973;52.098;7.582;2024-02-16T07:01:14;2.08;;;1.98;;
23590;SDS011;11973;52.098;7.582;2024-02-16T07:03:40;3.17;;;1.75;;
23590;SDS011;11973;52.098;7.582;2024-02-16T07:06:08;1.73;;;1.63;;
23590;SDS011;11973;52.098;7.582;2024-02-16T07:08:38;1.75;;;1.65;;
23590;SDS011;11973;52.098;7.582;2024-02-16T07:11:08;1.70;;;1.60;;
23590;SDS011;11973;52.098;7.582;2024-02-16T07:13:37;1.85;;;1.50;;
23590;SDS011;11973;52.098;7.582;2024-02-16T07:16:03;4.32;;;1.45;;
23590;SDS011;11973;52.098;7.582;2024-02-16T07:18:32;1.77;;;1.52;;
23590;SDS011;11973;52.098;7.582;2024-02-16T07:20:58;1.73;;;1.73;;
23590;SDS011;11973;52.098;7.582;2024-02-16T07:23:25;1.42;;;1.42;;
23590;SDS011;11973;52.098;7.582;2024-02-16T07:25:51;1.50;;;1.30;;
23590;SDS011;11973;52.098;7.582;2024-02-16T07:28:20;1.38;;;1.38;;
23590;SDS011;11973;52.098;7.582;2024-02-16T07:30:46;1.60;;;1.50;;
23590;SDS011;11973;52.098;7.582;2024-02-16T07:33:12;1.77;;;1.70;;
23590;SDS011;11973;52.098;7.582;2024-02-16T07:35:38;1.48;;;1.48;;
23590;SDS011;11973;52.098;7.582;2024-02-16T07:38:04;1.58;;;1.50;;
23590;SDS011;11973;52.098;7.582;2024-02-16T07:40:30;1.50;;;1.42;;
23590;SDS011;11973;52.098;7.582;2024-02-16T07:42:56;1.38;;;1.38;;
23590;SDS011;11973;52.098;7.582;2024-02-16T07:45:22;1.27;;;1.23;;
23590;SDS011;11973;52.098;7.582;2024-02-16T07:47:48;1.38;;;1.38;;
23590;SDS011;11973;52.098;7.582;2024-02-16T07:50:18;1.55;;;1.52;;
23590;SDS011;11973;52.098;7.582;2024-02-16T07:52:44;3.00;;;1.60;;
23590;SDS011;11973;52.098;7.582;2024-02-16T07:55:10;2.05;;;1.50;;
23590;SDS011;11973;52.098;7.582;2024-02-16T07:57:36;2.40;;;1.60;;
23590;SDS011;11973;52.098;7.582;2024-02-16T08:00:02;1.27;;;1.27;;
23590;SDS011;11973;52.098;7.582;2024-02-16T08:02:30;1.60;;;1.60;;
23590;SDS011;11973;52.098;7.582;2024-02-16T08:04:55;1.50;;;1.50;;
23590;SDS011;11973;52.098;7.582;2024-02-16T08:07:21;1.60;;;1.60;;
23590;SDS011;11973;52.098;7.582;2024-02-16T08:09:47;1.60;;;1.60;;
23590;SDS011;11973;52.098;7.582;2024-02-16T08:12:14;1.20;;;1.20;;
23590;SDS011;11973;52.098;7.582;2024-02-16T08:14:40;2.85;;;1.60;;
23590;SDS011;11973;52.098;7.582;2024-02-16T08:17:07;1.73;;;1.58;;
23590;SDS011;11973;52.098;7.582;2024-02-16T08:19:34;1.70;;;1.60;;
23590;SDS011;11973;52.098;7.582;2024-02-16T08:22:06;1.30;;;1.30;;
23590;SDS011;11973;52.098;7.582;2024-02-16T08:24:34;1.63;;;1.52;;
23590;SDS011;11973;52.098;7.582;2024-02-16T08:27:00;2.28;;;1.40;;
23590;SDS011;11973;52.098;7.582;2024-02-16T08:29:26;4.93;;;1.70;;
23590;SDS011;11973;52.098;7.582;2024-02-16T08:31:53;1.55;;;1.45;;
23590;SDS011;11973;52.098;7.582;2024-02-16T08:34:23;2.30;;;1.55;;
23590;SDS011;11973;52.098;7.582;2024-02-16T08:36:51;1.70;;;1.60;;
23590;SDS011;11973;52.098;7.582;2024-02-16T08:39:17;2.38;;;1.80;;
23590;SDS011;11973;52.098;7.582;2024-02-16T08:41:45;1.58;;;1.58;;
23590;SDS011;11973;52.098;7.582;2024-02-16T08:44:13;2.55;;;1.60;;
23590;SDS011;11973;52.098;7.582;2024-02-16T08:46:39;2.25;;;1.65;;
23590;SDS011;11973;52.098;7.582;2024-02-16T08:49:05;1.90;;;1.60;;
23590;SDS011;11973;52.098;7.582;2024-02-16T08:51:35;1.65;;;1.63;;
23590;SDS011;11973;52.098;7.582;2024-02-16T08:54:01;1.60;;;1.33;;
23590;SDS011;11973;52.098;7.582;2024-02-16T08:56:27;2.47;;;1.40;;
23590;SDS011;11973;52.098;7.582;2024-02-16T08:58:53;3.70;;;2.00;;
23590;SDS011;11973;52.098;7.582;2024-02-16T09:01:29;3.22;;;2.05;;
23590;SDS011;11973;52.098;7.582;2024-02-16T09:03:56;1.52;;;1.50;;
23590;SDS011;11973;52.098;7.582;2024-02-16T09:06:22;1.52;;;1.52;;
23590;SDS011;11973;52.098;7.582;2024-02-16T09:08:47;1.40;;;1.40;;
23590;SDS011;11973;52.098;7.582;2024-02-16T09:11:13;1.83;;;1.73;;
23590;SDS011;11973;52.098;7.582;2024-02-16T09:13:40;1.90;;;1.80;;
23590;SDS011;11973;52.098;7.582;2024-02-16T09:16:06;1.38;;;1.30;;
23590;SDS011;11973;52.098;7.582;2024-02-16T09:18:32;3.15;;;1.60;;
23590;SDS011;11973;52.098;7.582;2024-02-16T09:20:58;2.25;;;2.15;;
23590;SDS011;11973;52.098;7.582;2024-02-16T09:23:25;2.33;;;2.17;;
23590;SDS011;11973;52.098;7.582;2024-02-16T09:25:51;2.10;;;2.00;;
23590;SDS011;11973;52.098;7.582;2024-02-16T09:28:17;2.20;;;2.00;;
23590;SDS011;11973;52.098;7.582;2024-02-16T09:30:44;1.85;;;1.75;;
23590;SDS011;11973;52.098;7.582;2024-02-16T09:33:10;2.75;;;2.15;;
23590;SDS011;11973;52.098;7.582;2024-02-16T09:35:36;2.33;;;1.92;;
23590;SDS011;11973;52.098;7.582;2024-02-16T09:38:02;5.28;;;2.10;;
23590;SDS011;11973;52.098;7.582;2024-02-16T09:40:28;1.80;;;1.80;;
23590;SDS011;11973;52.098;7.582;2024-02-16T09:42:54;2.45;;;2.17;;
23590;SDS011;11973;52.098;7.582;2024-02-16T09:45:20;2.03;;;1.85;;
23590;SDS011;11973;52.098;7.582;2024-02-16T09:47:47;2.15;;;2.05;;
23590;SDS011;11973;52.098;7.582;2024-02-16T09:50:15;3.90;;;2.20;;
23590;SDS011;11973;52.098;7.582;2024-02-16T09:52:41;3.40;;;2.13;;
23590;SDS011;11973;52.098;7.582;2024-02-16T09:55:12;1.90;;;1.90;;
23590;SDS011;11973;52.098;7.582;2024-02-16T09:57:38;2.30;;;2.00;;
23590;SDS011;11973;52.098;7.582;2024-02-16T10:00:04;2.50;;;2.40;;
23590;SDS011;11973;52.098;7.582;2024-02-16T10:02:44;2.30;;;2.20;;
23590;SDS011;11973;52.098;7.582;2024-02-16T10:07:41;2.20;;;2.10;;
23590;SDS011;11973;52.098;7.582;2024-02-16T10:12:50;2.70;;;2.10;;
23590;SDS011;11973;52.098;7.582;2024-02-16T10:15:30;3.65;;;2.67;;
23590;SDS011;11973;52.098;7.582;2024-02-16T10:18:06;2.45;;;2.30;;
23590;SDS011;11973;52.098;7.582;2024-02-16T10:20:33;4.35;;;2.30;;
23590;SDS011;11973;52.098;7.582;2024-02-16T10:23:09;2.80;;;2.70;;
23590;SDS011;11973;52.098;7.582;2024-02-16T10:25:36;2.40;;;2.30;;
23590;SDS011;11973;52.098;7.582;2024-02-16T10:28:05;2.15;;;2.05;;
23590;SDS011;11973;52.098;7.582;2024-02-16T10:30:36;4.28;;;2.30;;
23590;SDS011;11973;52.098;7.582;2024-02-16T10:33:06;4.50;;;2.05;;
23590;SDS011;11973;52.098;7.582;2024-02-16T10:35:33;2.60;;;2.50;;
23590;SDS011;11973;52.098;7.582;2024-02-16T10:38:07;2.30;;;2.20;;
23590;SDS011;11973;52.098;7.582;2024-02-16T10:40:39;4.72;;;2.30;;
23590;SDS011;11973;52.098;7.582;2024-02-16T10:43:05;2.75;;;2.60;;
23590;SDS011;11973;52.098;7.582;2024-02-16T10:45:36;3.90;;;2.42;;
23590;SDS011;11973;52.098;7.582;2024-02-16T10:48:03;2.22;;;2.03;;
23590;SDS011;11973;52.098;7.582;2024-02-16T10:50:31;3.65;;;2.58;;
23590;SDS011;11973;52.098;7.582;2024-02-16T10:52:59;2.38;;;2.17;;
23590;SDS011;11973;52.098;7.582;2024-02-16T10:55:30;3.00;;;2.50;;
23590;SDS011;11973;52.098;7.582;2024-02-16T10:57:56;2.25;;;2.13;;
23590;SDS011;11973;52.098;7.582;2024-02-16T11:00:24;2.55;;;2.35;;
23590;SDS011;11973;52.098;7.582;2024-02-16T11:02:53;3.70;;;2.40;;
23590;SDS011;11973;52.098;7.582;2024-02-16T11:05:36;4.47;;;2.42;;
23590;SDS011;11973;52.098;7.582;2024-02-16T11:08:15;3.03;;;2.50;;
23590;SDS011;11973;52.098;7.582;2024-02-16T11:10:53;3.05;;;2.80;;
23590;SDS011;11973;52.098;7.582;2024-02-16T11:13:23;2.33;;;2.22;;
23590;SDS011;11973;52.098;7.582;2024-02-16T11:16:23;3.00;;;2.60;;
23590;SDS011;11973;52.098;7.582;2024-02-16T11:18:43;3.63;;;2.78;;
23590;SDS011;11973;52.098;7.582;2024-02-16T11:21:15;3.30;;;2.83;;
23590;SDS011;11973;52.098;7.582;2024-02-16T11:23:41;3.08;;;2.78;;
23590;SDS011;11973;52.098;7.582;2024-02-16T11:26:11;2.80;;;2.65;;
23590;SDS011;11973;52.098;7.582;2024-02-16T11:28:38;3.00;;;2.70;;
23590;SDS011;11973;52.098;7.582;2024-02-16T11:31:08;4.03;;;3.33;;
23590;SDS011;11973;52.098;7.582;2024-02-16T11:33:34;2.80;;;2.63;;
23590;SDS011;11973;52.098;7.582;2024-02-16T11:36:00;3.40;;;3.17;;
23590;SDS011;11973;52.098;7.582;2024-02-16T11:38:32;2.95;;;2.75;;
23590;SDS011;11973;52.098;7.582;2024-02-16T11:41:02;3.22;;;3.00;;
23590;SDS011;11973;52.098;7.582;2024-02-16T11:43:30;6.35;;;3.15;;
23590;SDS011;11973;52.098;7.582;2024-02-16T11:45:57;5.90;;;2.95;;
23590;SDS011;11973;52.098;7.582;2024-02-16T11:48:24;2.70;;;2.70;;
23590;SDS011;11973;52.098;7.582;2024-02-16T11:50:59;4.15;;;3.20;;
23590;SDS011;11973;52.098;7.582;2024-02-16T11:53:27;3.90;;;3.05;;
23590;SDS011;11973;52.098;7.582;2024-02-16T11:55:53;5.15;;;3.17;;
23590;SDS011;11973;52.098;7.582;2024-02-16T11:58:19;3.80;;;3.22;;
23590;SDS011;11973;52.098;7.582;2024-02-16T12:00:45;6.88;;;3.50;;
23590;SDS011;11973;52.098;7.582;2024-02-16T12:03:33;3.80;;;3.45;;
23590;SDS011;11973;52.098;7.582;2024-02-16T12:05:59;3.10;;;3.00;;
23590;SDS011;11973;52.098;7.582;2024-02-16T12:08:33;7.50;;;3.22;;
23590;SDS011;11973;52.098;7.582;2024-02-16T12:10:59;2.80;;;2.70;;
23590;SDS011;11973;52.098;7.582;2024-02-16T12:13:25;4.05;;;3.10;;
23590;SDS011;11973;52.098;7.582;2024-02-16T12:15:51;5.60;;;3.55;;
23590;SDS011;11973;52.098;7.582;2024-02-16T12:18:24;3.60;;;3.25;;
23590;SDS011;11973;52.098;7.582;2024-02-16T12:21:01;4.63;;;3.55;;
23590;SDS011;11973;52.098;7.582;2024-02-16T12:23:29;5.32;;;3.50;;
23590;SDS011;11973;52.098;7.582;2024-02-16T12:25:58;4.57;;;4.07;;
23590;SDS011;11973;52.098;7.582;2024-02-16T12:28:28;8.95;;;4.03;;
23590;SDS011;11973;52.098;7.582;2024-02-16T12:30:58;4.32;;;3.95;;
23590;SDS011;11973;52.098;7.582;2024-02-16T12:33:24;4.85;;;4.10;;
23590;SDS011;11973;52.098;7.582;2024-02-16T12:35:51;4.13;;;3.78;;
23590;SDS011;11973;52.098;7.582;2024-02-16T12:38:17;4.38;;;4.28;;
23590;SDS011;11973;52.098;7.582;2024-02-16T12:40:47;4.35;;;4.07;;
23590;SDS011;11973;52.098;7.582;2024-02-16T12:43:13;5.18;;;4.55;;
23590;SDS011;11973;52.098;7.582;2024-02-16T12:45:40;4.90;;;4.57;;
23590;SDS011;11973;52.098;7.582;2024-02-16T12:48:06;4.50;;;4.28;;
23590;SDS011;11973;52.098;7.582;2024-02-16T12:50:33;5.35;;;4.80;;
23590;SDS011;11973;52.098;7.582;2024-02-16T12:52:59;5.03;;;4.72;;
23590;SDS011;11973;52.098;7.582;2024-02-16T12:55:25;6.25;;;5.10;;
23590;SDS011;11973;52.098;7.582;2024-02-16T12:57:50;5.57;;;5.18;;
23590;SDS011;11973;52.098;7.582;2024-02-16T13:00:16;6.50;;;5.63;;
23590;SDS011;11973;52.098;7.582;2024-02-16T13:02:44;6.88;;;5.43;;
23590;SDS011;11973;52.098;7.582;2024-02-16T13:05:09;6.30;;;5.85;;
23590;SDS011;11973;52.098;7.582;2024-02-16T13:07:36;6.38;;;5.82;;
23590;SDS011;11973;52.098;7.582;2024-02-16T13:10:05;6.55;;;5.97;;
23590;SDS011;11973;52.098;7.582;2024-02-16T13:12:31;6.65;;;6.15;;
23590;SDS011;11973;52.098;7.582;2024-02-16T13:14:57;6.55;;;6.05;;
23590;SDS011;11973;52.098;7.582;2024-02-16T13:17:23;7.22;;;6.38;;
23590;SDS011;11973;52.098;7.582;2024-02-16T13:19:49;6.47;;;5.97;;
23590;SDS011;11973;52.098;7.582;2024-02-16T13:22:17;6.93;;;6.25;;
23590;SDS011;11973;52.098;7.582;2024-02-16T13:24:43;5.78;;;5.53;;
23590;SDS011;11973;52.098;7.582;2024-02-16T13:27:09;6.43;;;5.88;;
23590;SDS011;11973;52.098;7.582;2024-02-16T13:29:35;6.82;;;6.20;;
23590;SDS011;11973;52.098;7.582;2024-02-16T13:32:01;8.73;;;6.60;;
23590;SDS011;11973;52.098;7.582;2024-02-16T13:34:29;6.45;;;5.95;;
23590;SDS011;11973;52.098;7.582;2024-02-16T13:36:55;6.97;;;6.38;;
23590;SDS011;11973;52.098;7.582;2024-02-16T13:39:21;8.50;;;6.78;;
23590;SDS011;11973;52.098;7.582;2024-02-16T13:41:48;10.20;;;6.80;;
23590;SDS011;11973;52.098;7.582;2024-02-16T13:44:16;7.68;;;7.05;;
23590;SDS011;11973;52.098;7.582;2024-02-16T13:46:46;8.25;;;7.55;;
23590;SDS011;11973;52.098;7.582;2024-02-16T13:49:12;7.75;;;7.07;;
23590;SDS011;11973;52.098;7.582;2024-02-16T13:51:39;9.85;;;7.93;;
23590;SDS011;11973;52.098;7.582;2024-02-16T13:54:06;9.00;;;8.30;;
23590;SDS011;11973;52.098;7.582;2024-02-16T13:56:32;8.90;;;8.10;;
23590;SDS011;11973;52.098;7.582;2024-02-16T13:58:57;9.05;;;8.38;;
23590;SDS011;11973;52.098;7.582;2024-02-16T14:01:23;11.32;;;8.75;;
23590;SDS011;11973;52.098;7.582;2024-02-16T14:03:49;10.15;;;9.30;;
23590;SDS011;11973;52.098;7.582;2024-02-16T14:06:16;10.57;;;9.55;;
23590;SDS011;11973;52.098;7.582;2024-02-16T14:08:42;10.70;;;9.70;;
23590;SDS011;11973;52.098;7.582;2024-02-16T14:11:07;10.52;;;9.65;;
23590;SDS011;11973;52.098;7.582;2024-02-16T14:13:34;10.70;;;9.70;;
23590;SDS011;11973;52.098;7.582;2024-02-16T14:16:00;11.38;;;10.27;;
23590;SDS011;11973;52.098;7.582;2024-02-16T14:18:27;11.43;;;10.15;;
23590;SDS011;11973;52.098;7.582;2024-02-16T14:20:53;11.65;;;10.48;;
23590;SDS011;11973;52.098;7.582;2024-02-16T14:23:18;11.35;;;10.27;;
23590;SDS011;11973;52.098;7.582;2024-02-16T14:25:45;14.10;;;10.57;;
23590;SDS011;11973;52.098;7.582;2024-02-16T14:28:12;11.75;;;10.55;;
23590;SDS011;11973;52.098;7.582;2024-02-16T14:30:38;11.43;;;10.52;;
23590;SDS011;11973;52.098;7.582;2024-02-16T14:33:05;11.18;;;10.20;;
23590;SDS011;11973;52.098;7.582;2024-02-16T14:35:30;10.93;;;10.23;;
23590;SDS011;11973;52.098;7.582;2024-02-16T14:37:57;10.52;;;9.93;;
23590;SDS011;11973;52.098;7.582;2024-02-16T14:40:24;11.05;;;10.10;;
23590;SDS011;11973;52.098;7.582;2024-02-16T14:42:50;10.95;;;10.15;;
23590;SDS011;11973;52.098;7.582;2024-02-16T14:45:16;11.50;;;10.35;;
23590;SDS011;11973;52.098;7.582;2024-02-16T14:47:46;10.88;;;9.98;;
23590;SDS011;11973;52.098;7.582;2024-02-16T14:50:13;11.63;;;10.40;;
23590;SDS011;11973;52.098;7.582;2024-02-16T14:52:39;12.10;;;11.18;;
23590;SDS011;11973;52.098;7.582;2024-02-16T14:55:06;12.05;;;10.95;;
23590;SDS011;11973;52.098;7.582;2024-02-16T14:57:39;11.60;;;10.82;;
23590;SDS011;11973;52.098;7.582;2024-02-16T15:00:08;12.65;;;11.40;;
23590;SDS011;11973;52.098;7.582;2024-02-16T15:02:36;11.60;;;10.68;;
23590;SDS011;11973;52.098;7.582;2024-02-16T15:05:03;11.80;;;11.00;;
23590;SDS011;11973;52.098;7.582;2024-02-16T15:07:30;11.07;;;10.18;;
23590;SDS011;11973;52.098;7.582;2024-02-16T15:09:56;10.77;;;10.00;;
23590;SDS011;11973;52.098;7.582;2024-02-16T15:12:22;10.98;;;10.07;;
23590;SDS011;11973;52.098;7.582;2024-02-16T15:14:49;11.27;;;10.55;;
23590;SDS011;11973;52.098;7.582;2024-02-16T15:17:16;11.27;;;10.27;;
23590;SDS011;11973;52.098;7.582;2024-02-16T15:19:42;11.25;;;10.25;;
23590;SDS011;11973;52.098;7.582;2024-02-16T15:22:08;10.98;;;10.18;;
23590;SDS011;11973;52.098;7.582;2024-02-16T15:24:34;11.18;;;10.25;;
23590;SDS011;11973;52.098;7.582;2024-02-16T15:27:02;9.57;;;9.07;;
23590;SDS011;11973;52.098;7.582;2024-02-16T15:29:32;10.73;;;9.80;;
23590;SDS011;11973;52.098;7.582;2024-02-16T15:31:58;10.70;;;9.68;;
23590;SDS011;11973;52.098;7.582;2024-02-16T15:34:25;10.20;;;9.38;;
23590;SDS011;11973;52.098;7.582;2024-02-16T15:36:51;9.85;;;9.05;;
23590;SDS011;11973;52.098;7.582;2024-02-16T15:39:17;9.57;;;8.98;;
23590;SDS011;11973;52.098;7.582;2024-02-16T15:41:43;9.40;;;8.82;;
23590;SDS011;11973;52.098;7.582;2024-02-16T15:44:09;8.77;;;8.27;;
23590;SDS011;11973;52.098;7.582;2024-02-16T15:46:36;8.20;;;7.78;;
23590;SDS011;11973;52.098;7.582;2024-02-16T15:49:07;8.50;;;8.15;;
23590;SDS011;11973;52.098;7.582;2024-02-16T15:51:33;7.72;;;7.43;;
23590;SDS011;11973;52.098;7.582;2024-02-16T15:53:58;8.38;;;7.97;;
23590;SDS011;11973;52.098;7.582;2024-02-16T15:56:26;7.40;;;7.10;;
23590;SDS011;11973;52.098;7.582;2024-02-16T15:58:52;8.55;;;8.18;;
23590;SDS011;11973;52.098;7.582;2024-02-16T16:01:27;8.32;;;8.05;;
23590;SDS011;11973;52.098;7.582;2024-02-16T16:03:55;8.60;;;8.30;;
23590;SDS011;11973;52.098;7.582;2024-02-16T16:06:20;8.68;;;8.27;;
23590;SDS011;11973;52.098;7.582;2024-02-16T16:08:47;8.80;;;8.57;;
23590;SDS011;11973;52.098;7.582;2024-02-16T16:11:14;8.82;;;8.43;;
23590;SDS011;11973;52.098;7.582;2024-02-16T16:13:41;8.95;;;8.65;;
23590;SDS011;11973;52.098;7.582;2024-02-16T16:16:07;11.35;;;10.75;;
23590;SDS011;11973;52.098;7.582;2024-02-16T16:18:33;8.30;;;8.00;;
23590;SDS011;11973;52.098;7.582;2024-02-16T16:21:03;7.45;;;7.20;;
23590;SDS011;11973;52.098;7.582;2024-02-16T16:23:31;7.55;;;7.35;;
23590;SDS011;11973;52.098;7.582;2024-02-16T16:26:00;7.15;;;6.85;;
23590;SDS011;11973;52.098;7.582;2024-02-16T16:28:25;5.72;;;5.68;;
23590;SDS011;11973;52.098;7.582;2024-02-16T16:30:51;5.57;;;5.47;;
23590;SDS011;11973;52.098;7.582;2024-02-16T16:33:17;5.03;;;4.93;;
23590;SDS011;11973;52.098;7.582;2024-02-16T16:35:43;5.00;;;5.00;;
23590;SDS011;11973;52.098;7.582;2024-02-16T16:38:09;5.10;;;5.00;;
23590;SDS011;11973;52.098;7.582;2024-02-16T16:40:38;5.20;;;5.10;;
23590;SDS011;11973;52.098;7.582;2024-02-16T16:43:04;5.28;;;5.25;;
23590;SDS011;11973;52.098;7.582;2024-02-16T16:45:30;5.60;;;5.50;;
23590;SDS011;11973;52.098;7.582;2024-02-16T16:47:58;6.05;;;5.88;;
23590;SDS011;11973;52.098;7.582;2024-02-16T16:50:24;5.95;;;5.85;;
23590;SDS011;11973;52.098;7.582;2024-02-16T16:52:49;6.00;;;5.82;;
23590;SDS011;11973;52.098;7.582;2024-02-16T16:55:15;6.38;;;6.28;;
23590;SDS011;11973;52.098;7.582;2024-02-16T16:57:41;6.60;;;6.50;;
23590;SDS011;11973;52.098;7.582;2024-02-16T17:00:07;6.05;;;5.95;;
23590;SDS011;11973;52.098;7.582;2024-02-16T17:02:33;7.80;;;7.50;;
23590;SDS011;11973;52.098;7.582;2024-02-16T17:04:59;9.85;;;9.27;;
23590;SDS011;11973;52.098;7.582;2024-02-16T17:07:25;8.57;;;8.18;;
23590;SDS011;11973;52.098;7.582;2024-02-16T17:09:51;8.05;;;7.70;;
23590;SDS011;11973;52.098;7.582;2024-02-16T17:12:22;8.73;;;8.43;;
23590;SDS011;11973;52.098;7.582;2024-02-16T17:14:49;8.15;;;7.95;;
23590;SDS011;11973;52.098;7.582;2024-02-16T17:17:15;7.47;;;7.18;;
23590;SDS011;11973;52.098;7.582;2024-02-16T17:19:41;7.55;;;7.25;;
23590;SDS011;11973;52.098;7.582;2024-02-16T17:22:10;7.78;;;7.50;;
23590;SDS011;11973;52.098;7.582;2024-02-16T17:24:39;7.40;;;7.10;;
23590;SDS011;11973;52.098;7.582;2024-02-16T17:27:05;7.20;;;7.03;;
23590;SDS011;11973;52.098;7.582;2024-02-16T17:29:35;7.15;;;7.05;;
23590;SDS011;11973;52.098;7.582;2024-02-16T17:32:07;7.10;;;6.90;;
23590;SDS011;11973;52.098;7.582;2024-02-16T17:34:35;10.02;;;9.57;;
23590;SDS011;11973;52.098;7.582;2024-02-16T17:37:04;7.38;;;7.18;;
23590;SDS011;11973;52.098;7.582;2024-02-16T17:39:30;7.22;;;7.03;;
23590;SDS011;11973;52.098;7.582;2024-02-16T17:41:55;6.80;;;6.70;;
23590;SDS011;11973;52.098;7.582;2024-02-16T17:44:21;7.35;;;6.97;;
23590;SDS011;11973;52.098;7.582;2024-02-16T17:46:47;7.03;;;6.85;;
23590;SDS011;11973;52.098;7.582;2024-02-16T17:49:13;6.85;;;6.75;;
23590;SDS011;11973;52.098;7.582;2024-02-16T17:51:38;7.57;;;7.38;;
23590;SDS011;11973;52.098;7.582;2024-02-16T17:54:04;7.68;;;7.47;;
23590;SDS011;11973;52.098;7.582;2024-02-16T17:56:30;8.40;;;8.20;;
23590;SDS011;11973;52.098;7.582;2024-02-16T17:58:56;8.27;;;7.88;;
23590;SDS011;11973;52.098;7.582;2024-02-16T18:01:22;7.97;;;7.65;;
23590;SDS011;11973;52.098;7.582;2024-02-16T18:03:47;8.70;;;8.35;;
23590;SDS011;11973;52.098;7.582;2024-02-16T18:06:13;7.45;;;7.25;;
23590;SDS011;11973;52.098;7.582;2024-02-16T18:08:39;8.07;;;7.78;;
23590;SDS011;11973;52.098;7.582;2024-02-16T18:11:05;7.93;;;7.63;;
23590;SDS011;11973;52.098;7.582;2024-02-16T18:13:30;9.30;;;9.00;;
23590;SDS011;11973;52.098;7.582;2024-02-16T18:15:56;8.32;;;8.02;;
23590;SDS011;11973;52.098;7.582;2024-02-16T18:18:22;7.97;;;7.78;;
23590;SDS011;11973;52.098;7.582;2024-02-16T18:20:48;8.60;;;8.20;;
23590;SDS011;11973;52.098;7.582;2024-02-16T18:23:16;9.02;;;8.63;;
23590;SDS011;11973;52.098;7.582;2024-02-16T18:25:42;9.23;;;8.93;;
23590;SDS011;11973;52.098;7.582;2024-02-16T18:28:08;8.18;;;7.90;;
23590;SDS011;11973;52.098;7.582;2024-02-16T18:30:34;8.75;;;8.35;;
23590;SDS011;11973;52.098;7.582;2024-02-16T18:33:00;10.05;;;9.50;;
23590;SDS011;11973;52.098;7.582;2024-02-16T18:35:26;9.45;;;9.05;;
23590;SDS011;11973;52.098;7.582;2024-02-16T18:37:51;9.32;;;8.93;;
23590;SDS011;11973;52.098;7.582;2024-02-16T18:40:17;9.18;;;8.77;;
23590;SDS011;11973;52.098;7.582;2024-02-16T18:42:43;8.73;;;8.48;;
23590;SDS011;11973;52.098;7.582;2024-02-16T18:45:09;8.45;;;8.15;;
23590;SDS011;11973;52.098;7.582;2024-02-16T18:47:38;8.98;;;8.65;;
23590;SDS011;11973;52.098;7.582;2024-02-16T18:50:04;8.68;;;8.38;;
23590;SDS011;11973;52.098;7.582;2024-02-16T18:52:31;7.72;;;7.60;;
23590;SDS011;11973;52.098;7.582;2024-02-16T18:54:58;9.07;;;8.55;;
23590;SDS011;11973;52.098;7.582;2024-02-16T18:57:24;8.57;;;8.27;;
23590;SDS011;11973;52.098;7.582;2024-02-16T18:59:50;8.95;;;8.70;;
23590;SDS011;11973;52.098;7.582;2024-02-16T19:02:16;9.32;;;9.02;;
23590;SDS011;11973;52.098;7.582;2024-02-16T19:04:42;8.57;;;8.38;;
23590;SDS011;11973;52.098;7.582;2024-02-16T19:07:08;9.90;;;9.40;;
23590;SDS011;11973;52.098;7.582;2024-02-16T19:09:34;10.02;;;9.63;;
23590;SDS011;11973;52.098;7.582;2024-02-16T19:12:00;10.27;;;9.77;;
23590;SDS011;11973;52.098;7.582;2024-02-16T19:14:26;10.68;;;10.07;;
23590;SDS011;11973;52.098;7.582;2024-02-16T19:16:51;10.35;;;9.85;;
23590;SDS011;11973;52.098;7.582;2024-02-16T19:19:20;12.65;;;11.95;;
23590;SDS011;11973;52.098;7.582;2024-02-16T19:21:46;13.00;;;12.10;;
23590;SDS011;11973;52.098;7.582;2024-02-16T19:24:13;12.38;;;11.68;;
23590;SDS011;11973;52.098;7.582;2024-02-16T19:26:40;18.27;;;16.75;;
23590;SDS011;11973;52.098;7.582;2024-02-16T19:29:06;27.88;;;25.30;;
23590;SDS011;11973;52.098;7.582;2024-02-16T19:31:32;12.98;;;12.18;;
23590;SDS011;11973;52.098;7.582;2024-02-16T19:34:01;14.05;;;13.02;;
23590;SDS011;11973;52.098;7.582;2024-02-16T19:36:27;22.90;;;21.10;;